MSC Mandraki — SZUH — position and weather

sailwx.info

Track history (hours):
 
Tides and Currents Weather Stations Pressure Air Temp Water Temp Dewpoint Dewpoint Depression Visibility Wind Speed Wind Dir Waves Ship Positions

MSC Mandraki

Last reported at 2015-Aug-26 00:16 UTC. Time now 2015-Sep-01 06:04 UTC.
Position N 37°30' W 070°56'.

Length 294 m; draft 10.4 m.

Type: Ship. MMSI: 240265000.

Date/timePositionNaut miles runAvg speedWind from/ knotsBaromVisibWave heightAir tempDewpointWater temp
2015-Aug-26 00:16N 37°30' W 070°56'2225.4
2015-Aug-25 23:25N 37°26' W 071°23'2224.2
2015-Aug-25 22:30N 37°23' W 071°51'2122.1
2015-Aug-25 21:33N 37°19' W 072°17'2121.1
2015-Aug-25 20:34N 37°16' W 072°43'15915.3
2015-Aug-25 10:07N 37°33' W 076°02'3117.5
2015-Aug-25 08:23N 38°03' W 076°13'1619.0
2015-Aug-25 07:33N 38°18' W 076°17'2318.2
2015-Aug-25 06:16N 38°40' W 076°25'1317.9
2015-Aug-25 05:33N 38°53' W 076°24'1514.7
2015-Aug-25 04:33N 39°08' W 076°24'1010.0
2015-Aug-25 03:33N 39°15' W 076°33'1 0.8
2015-Aug-25 02:33N 39°15' W 076°33'0 0.0
2015-Aug-25 01:33N 39°15' W 076°33'0 0.0
2015-Aug-25 00:33N 39°15' W 076°33'0 0.0
2015-Aug-24 23:33N 39°15' W 076°33'0 0.0
2015-Aug-24 22:33N 39°15' W 076°33'0 0.0
2015-Aug-24 21:33N 39°15' W 076°33'0 0.0
2015-Aug-24 20:33N 39°15' W 076°33'0 0.0
2015-Aug-24 19:33N 39°15' W 076°33'0 0.0
2015-Aug-24 18:33N 39°15' W 076°33'0 0.0
2015-Aug-24 17:33N 39°15' W 076°33'0 0.0
2015-Aug-24 16:33N 39°15' W 076°33'0 0.0
2015-Aug-24 15:33N 39°15' W 076°33'0 0.0
2015-Aug-24 14:33N 39°15' W 076°33'0 0.0
2015-Aug-24 13:33N 39°15' W 076°33'0 0.0
2015-Aug-24 12:33N 39°15' W 076°33'0 0.0
2015-Aug-24 11:33N 39°15' W 076°33'0 0.0
2015-Aug-24 10:27N 39°15' W 076°33'0 0.0
2015-Aug-24 09:33N 39°15' W 076°33'0 0.0
2015-Aug-24 08:33N 39°15' W 076°33'0 0.0
2015-Aug-24 07:33N 39°15' W 076°33'0 0.0
2015-Aug-24 06:33N 39°15' W 076°33'0 0.0
2015-Aug-24 05:33N 39°15' W 076°33'0 0.0
2015-Aug-24 04:27N 39°15' W 076°33'0 0.0
2015-Aug-24 03:33N 39°15' W 076°33'0 0.0
2015-Aug-24 02:33N 39°15' W 076°33'0 0.0
2015-Aug-24 01:33N 39°15' W 076°33'0 0.0
2015-Aug-24 00:33N 39°15' W 076°33'0 0.0
2015-Aug-23 23:33N 39°15' W 076°33'0 0.0
2015-Aug-23 22:33N 39°15' W 076°33'0 0.0
2015-Aug-23 21:33N 39°15' W 076°33'0 0.0
2015-Aug-23 20:33N 39°15' W 076°33'0 0.0
2015-Aug-23 19:33N 39°15' W 076°33'0 0.0
2015-Aug-23 18:33N 39°15' W 076°33'0 0.0
2015-Aug-23 17:33N 39°15' W 076°33'1 1.3
2015-Aug-23 16:34N 39°14' W 076°32'1111.0
2015-Aug-23 15:33N 39°05' W 076°24'1616.5
2015-Aug-23 14:33N 38°49' W 076°25'1818.1
2015-Aug-23 13:33N 38°31' W 076°25'1918.5
2015-Aug-23 12:32N 38°13' W 076°15'1918.4
2015-Aug-23 11:31N 37°55' W 076°09'89 8.6
2015-Aug-23 01:05N 37°53' W 074°16'1118.6
2015-Aug-23 00:31N 38°03' W 074°13'2118.5
2015-Aug-22 23:23N 38°24' W 074°07'1518.8
2015-Aug-22 22:33N 38°38' W 074°00'1918.6
2015-Aug-22 21:33N 38°56' W 073°55'1918.7
2015-Aug-22 20:33N 39°15' W 073°53'1717.1
2015-Aug-22 19:33N 39°32' W 073°53'1515.3
2015-Aug-22 18:33N 39°47' W 073°53'1615.7
2015-Aug-22 17:33N 40°03' W 073°50'1918.7
2015-Aug-22 16:33N 40°22' W 073°49'1212.3
2015-Aug-22 15:33N 40°31' W 073°59'10 9.6
2015-Aug-22 14:33N 40°39' W 074°07'3 2.6
2015-Aug-22 13:32N 40°41' W 074°09'0 0.0
2015-Aug-22 12:32N 40°41' W 074°09'0 0.0
2015-Aug-22 11:32N 40°41' W 074°09'0 0.0
2015-Aug-22 10:32N 40°41' W 074°09'0 0.0
2015-Aug-22 09:32N 40°41' W 074°09'0 0.0
2015-Aug-22 08:32N 40°41' W 074°09'0 0.0
2015-Aug-22 07:32N 40°41' W 074°09'0 0.0
2015-Aug-22 06:32N 40°41' W 074°09'0 0.0
2015-Aug-22 05:29N 40°41' W 074°09'0 0.0
2015-Aug-22 04:32N 40°41' W 074°09'0 0.0
2015-Aug-22 03:32N 40°41' W 074°09'0 0.0
2015-Aug-22 02:32N 40°41' W 074°09'0 0.0
2015-Aug-22 01:32N 40°41' W 074°09'0 0.0
2015-Aug-22 00:29N 40°41' W 074°09'0 0.0
2015-Aug-21 23:32N 40°41' W 074°09'0 0.0
2015-Aug-21 22:32N 40°41' W 074°09'0 0.0
2015-Aug-21 21:32N 40°41' W 074°09'0 0.0
2015-Aug-21 20:32N 40°41' W 074°09'0 0.0
2015-Aug-21 19:32N 40°41' W 074°09'0 0.0
2015-Aug-21 18:32N 40°41' W 074°09'0 0.0
2015-Aug-21 17:32N 40°41' W 074°09'0 0.0
2015-Aug-21 16:32N 40°41' W 074°09'0 0.0
2015-Aug-21 15:32N 40°41' W 074°09'2 1.8
2015-Aug-21 14:33N 40°39' W 074°09'5 4.6
2015-Aug-21 13:33N 40°38' W 074°03'1211.9
2015-Aug-21 12:34N 40°29' W 073°53'9 8.4
2015-Aug-21 11:26N 40°27' W 073°41'9 9.2
2015-Aug-21 10:27N 40°28' W 073°29'1315.2
2015-Aug-21 09:34N 40°30' W 073°11'1515.2
2015-Aug-21 08:34N 40°30' W 072°51'1515.2
2015-Aug-21 07:33N 40°30' W 072°31'1515.3
2015-Aug-21 06:34N 40°31' W 072°11'1515.4
2015-Aug-21 05:34N 40°31' W 071°51'1515.4
2015-Aug-21 04:34N 40°32' W 071°31'1615.6
2015-Aug-21 03:33N 40°32' W 071°10'1615.8
2015-Aug-21 02:34N 40°32' W 070°49'1615.9
2015-Aug-21 01:34N 40°33' W 070°29'1615.9
2015-Aug-21 00:34N 40°33' W 070°08'1615.9
2015-Aug-20 23:33N 40°34' W 069°47'1616.0
2015-Aug-20 22:34N 40°34' W 069°26'1615.6
2015-Aug-20 21:33N 40°32' W 069°05'1615.4
2015-Aug-20 20:33N 40°29' W 068°45'1515.7
2015-Aug-20 19:34N 40°26' W 068°25'1615.6
2015-Aug-20 18:33N 40°22' W 068°05'  
Track history (hours):
 
Tides and Currents Weather Stations Pressure Air Temp Water Temp Dewpoint Dewpoint Depression Visibility Wind Speed Wind Dir Waves Ship Positions

MSC Mandraki

Last reported at 2015-Aug-26 00:16 UTC. Time now 2015-Sep-01 06:04 UTC.
Position N 37°30' W 070°56'.

Length 294 m; draft 10.4 m.

Type: Ship. MMSI: 240265000.

Date/timePositionNaut miles runAvg speedWind from/ knotsBaromVisibWave heightAir tempDewpointWater temp
2015-Aug-26 00:16N 37°30' W 070°56'2225.4
2015-Aug-25 23:25N 37°26' W 071°23'2224.2
2015-Aug-25 22:30N 37°23' W 071°51'2122.1
2015-Aug-25 21:33N 37°19' W 072°17'2121.1
2015-Aug-25 20:34N 37°16' W 072°43'15915.3
2015-Aug-25 10:07N 37°33' W 076°02'3117.5
2015-Aug-25 08:23N 38°03' W 076°13'1619.0
2015-Aug-25 07:33N 38°18' W 076°17'2318.2
2015-Aug-25 06:16N 38°40' W 076°25'1317.9
2015-Aug-25 05:33N 38°53' W 076°24'1514.7
2015-Aug-25 04:33N 39°08' W 076°24'1010.0
2015-Aug-25 03:33N 39°15' W 076°33'1 0.8
2015-Aug-25 02:33N 39°15' W 076°33'0 0.0
2015-Aug-25 01:33N 39°15' W 076°33'0 0.0
2015-Aug-25 00:33N 39°15' W 076°33'0 0.0
2015-Aug-24 23:33N 39°15' W 076°33'0 0.0
2015-Aug-24 22:33N 39°15' W 076°33'0 0.0
2015-Aug-24 21:33N 39°15' W 076°33'0 0.0
2015-Aug-24 20:33N 39°15' W 076°33'0 0.0
2015-Aug-24 19:33N 39°15' W 076°33'0 0.0
2015-Aug-24 18:33N 39°15' W 076°33'0 0.0
2015-Aug-24 17:33N 39°15' W 076°33'0 0.0
2015-Aug-24 16:33N 39°15' W 076°33'0 0.0
2015-Aug-24 15:33N 39°15' W 076°33'0 0.0
2015-Aug-24 14:33N 39°15' W 076°33'0 0.0
2015-Aug-24 13:33N 39°15' W 076°33'0 0.0
2015-Aug-24 12:33N 39°15' W 076°33'0 0.0
2015-Aug-24 11:33N 39°15' W 076°33'0 0.0
2015-Aug-24 10:27N 39°15' W 076°33'0 0.0
2015-Aug-24 09:33N 39°15' W 076°33'0 0.0
2015-Aug-24 08:33N 39°15' W 076°33'0 0.0
2015-Aug-24 07:33N 39°15' W 076°33'0 0.0
2015-Aug-24 06:33N 39°15' W 076°33'0 0.0
2015-Aug-24 05:33N 39°15' W 076°33'0 0.0
2015-Aug-24 04:27N 39°15' W 076°33'0 0.0
2015-Aug-24 03:33N 39°15' W 076°33'0 0.0
2015-Aug-24 02:33N 39°15' W 076°33'0 0.0
2015-Aug-24 01:33N 39°15' W 076°33'0 0.0
2015-Aug-24 00:33N 39°15' W 076°33'0 0.0
2015-Aug-23 23:33N 39°15' W 076°33'0 0.0
2015-Aug-23 22:33N 39°15' W 076°33'0 0.0
2015-Aug-23 21:33N 39°15' W 076°33'0 0.0
2015-Aug-23 20:33N 39°15' W 076°33'0 0.0
2015-Aug-23 19:33N 39°15' W 076°33'0 0.0
2015-Aug-23 18:33N 39°15' W 076°33'0 0.0
2015-Aug-23 17:33N 39°15' W 076°33'1 1.3
2015-Aug-23 16:34N 39°14' W 076°32'1111.0
2015-Aug-23 15:33N 39°05' W 076°24'1616.5
2015-Aug-23 14:33N 38°49' W 076°25'1818.1
2015-Aug-23 13:33N 38°31' W 076°25'1918.5
2015-Aug-23 12:32N 38°13' W 076°15'1918.4
2015-Aug-23 11:31N 37°55' W 076°09'89 8.6
2015-Aug-23 01:05N 37°53' W 074°16'1118.6
2015-Aug-23 00:31N 38°03' W 074°13'2118.5
2015-Aug-22 23:23N 38°24' W 074°07'1518.8
2015-Aug-22 22:33N 38°38' W 074°00'1918.6
2015-Aug-22 21:33N 38°56' W 073°55'1918.7
2015-Aug-22 20:33N 39°15' W 073°53'1717.1
2015-Aug-22 19:33N 39°32' W 073°53'1515.3
2015-Aug-22 18:33N 39°47' W 073°53'1615.7
2015-Aug-22 17:33N 40°03' W 073°50'1918.7
2015-Aug-22 16:33N 40°22' W 073°49'1212.3
2015-Aug-22 15:33N 40°31' W 073°59'10 9.6
2015-Aug-22 14:33N 40°39' W 074°07'3 2.6
2015-Aug-22 13:32N 40°41' W 074°09'0 0.0
2015-Aug-22 12:32N 40°41' W 074°09'0 0.0
2015-Aug-22 11:32N 40°41' W 074°09'0 0.0
2015-Aug-22 10:32N 40°41' W 074°09'0 0.0
2015-Aug-22 09:32N 40°41' W 074°09'0 0.0
2015-Aug-22 08:32N 40°41' W 074°09'0 0.0
2015-Aug-22 07:32N 40°41' W 074°09'0 0.0
2015-Aug-22 06:32N 40°41' W 074°09'0 0.0
2015-Aug-22 05:29N 40°41' W 074°09'0 0.0
2015-Aug-22 04:32N 40°41' W 074°09'0 0.0
2015-Aug-22 03:32N 40°41' W 074°09'0 0.0
2015-Aug-22 02:32N 40°41' W 074°09'0 0.0
2015-Aug-22 01:32N 40°41' W 074°09'0 0.0
2015-Aug-22 00:29N 40°41' W 074°09'0 0.0
2015-Aug-21 23:32N 40°41' W 074°09'0 0.0
2015-Aug-21 22:32N 40°41' W 074°09'0 0.0
2015-Aug-21 21:32N 40°41' W 074°09'0 0.0
2015-Aug-21 20:32N 40°41' W 074°09'0 0.0
2015-Aug-21 19:32N 40°41' W 074°09'0 0.0
2015-Aug-21 18:32N 40°41' W 074°09'0 0.0
2015-Aug-21 17:32N 40°41' W 074°09'0 0.0
2015-Aug-21 16:32N 40°41' W 074°09'0 0.0
2015-Aug-21 15:32N 40°41' W 074°09'2 1.8
2015-Aug-21 14:33N 40°39' W 074°09'5 4.6
2015-Aug-21 13:33N 40°38' W 074°03'1211.9
2015-Aug-21 12:34N 40°29' W 073°53'9 8.4
2015-Aug-21 11:26N 40°27' W 073°41'9 9.2
2015-Aug-21 10:27N 40°28' W 073°29'1315.2
2015-Aug-21 09:34N 40°30' W 073°11'1515.2
2015-Aug-21 08:34N 40°30' W 072°51'1515.2
2015-Aug-21 07:33N 40°30' W 072°31'1515.3
2015-Aug-21 06:34N 40°31' W 072°11'1515.4
2015-Aug-21 05:34N 40°31' W 071°51'1515.4
2015-Aug-21 04:34N 40°32' W 071°31'1615.6
2015-Aug-21 03:33N 40°32' W 071°10'1615.8
2015-Aug-21 02:34N 40°32' W 070°49'1615.9
2015-Aug-21 01:34N 40°33' W 070°29'1615.9
2015-Aug-21 00:34N 40°33' W 070°08'1615.9
2015-Aug-20 23:33N 40°34' W 069°47'1616.0
2015-Aug-20 22:34N 40°34' W 069°26'1615.6
2015-Aug-20 21:33N 40°32' W 069°05'1615.4
2015-Aug-20 20:33N 40°29' W 068°45'1515.7
2015-Aug-20 19:34N 40°26' W 068°25'1615.6
2015-Aug-20 18:33N 40°22' W 068°05'  

Dump ship's entire track history